createdAt,value
2018-09-06T00:01:08.838Z,99.90
2018-09-06T00:03:37.227Z,99.90
2018-09-06T00:06:06.559Z,99.90
2018-09-06T00:08:35.147Z,99.90
2018-09-06T00:11:03.522Z,99.90
2018-09-06T00:13:31.952Z,99.90
2018-09-06T00:16:00.481Z,99.90
2018-09-06T00:18:28.885Z,99.90
2018-09-06T00:20:57.470Z,99.90
2018-09-06T00:23:25.901Z,99.90
2018-09-06T00:25:54.264Z,99.90
2018-09-06T00:28:22.821Z,99.90
2018-09-06T00:30:51.194Z,99.90
2018-09-06T00:33:19.595Z,99.90
2018-09-06T00:35:48.074Z,99.90
2018-09-06T00:38:16.660Z,99.90
2018-09-06T00:40:45.073Z,99.90
2018-09-06T00:43:13.497Z,99.90
2018-09-06T00:45:42.084Z,99.90
2018-09-06T00:48:10.486Z,99.90
2018-09-06T00:50:40.180Z,99.90
2018-09-06T00:53:08.759Z,99.90
2018-09-06T00:55:37.313Z,99.90
2018-09-06T00:58:05.770Z,99.90
2018-09-06T01:00:34.409Z,99.90
2018-09-06T01:03:02.820Z,99.90
2018-09-06T01:05:31.392Z,99.90
2018-09-06T01:07:59.952Z,99.90
2018-09-06T01:10:28.376Z,99.90
2018-09-06T01:12:57.314Z,99.90
2018-09-06T01:15:26.195Z,99.90
2018-09-06T01:17:54.563Z,99.90
2018-09-06T01:20:22.978Z,99.90
2018-09-06T01:22:51.437Z,99.90
2018-09-06T01:25:19.904Z,99.90
2018-09-06T01:27:48.333Z,99.90
2018-09-06T01:30:16.741Z,99.90
2018-09-06T01:32:45.190Z,99.90
2018-09-06T01:35:13.827Z,99.90
2018-09-06T01:37:42.172Z,99.90
2018-09-06T01:40:10.628Z,99.90
2018-09-06T01:42:39.236Z,99.90
2018-09-06T01:45:07.620Z,99.90
2018-09-06T01:47:36.009Z,99.90
2018-09-06T01:50:04.463Z,99.90
2018-09-06T01:52:32.900Z,99.90
2018-09-06T01:55:01.497Z,99.90
2018-09-06T01:57:29.928Z,99.90
2018-09-06T01:59:58.335Z,99.90
2018-09-06T02:02:26.930Z,99.90
2018-09-06T02:04:55.334Z,99.90
2018-09-06T02:07:23.761Z,99.90
2018-09-06T02:09:52.180Z,99.90
2018-09-06T02:12:21.349Z,99.90
2018-09-06T02:14:49.950Z,99.90
2018-09-06T02:17:18.314Z,99.90
2018-09-06T02:19:46.726Z,99.90
2018-09-06T02:22:15.384Z,99.90
2018-09-06T02:24:43.765Z,99.90
2018-09-06T02:27:12.202Z,99.90
2018-09-06T02:29:40.956Z,99.90
2018-09-06T02:32:09.468Z,99.90
2018-09-06T02:34:37.863Z,99.90
2018-09-06T02:37:06.476Z,99.90
2018-09-06T02:39:34.925Z,99.90
2018-09-06T02:42:03.345Z,99.90
2018-09-06T02:44:31.938Z,99.90
2018-09-06T02:47:00.324Z,99.90
2018-09-06T02:49:34.866Z,99.90
2018-09-06T02:52:03.268Z,99.90
2018-09-06T02:54:31.660Z,99.90
2018-09-06T02:57:00.306Z,99.90
2018-09-06T02:59:29.453Z,99.90
2018-09-06T03:01:57.863Z,99.90
2018-09-06T03:04:26.982Z,99.90
2018-09-06T03:06:55.378Z,99.90
2018-09-06T03:09:24.025Z,99.90
2018-09-06T03:11:55.969Z,99.90
2018-09-06T03:14:24.585Z,99.90
2018-09-06T03:16:52.964Z,99.90
2018-09-06T03:19:21.626Z,99.90
2018-09-06T03:21:50.037Z,99.90
2018-09-06T03:24:18.404Z,99.90
2018-09-06T03:26:46.883Z,99.90
2018-09-06T03:29:15.357Z,99.90
2018-09-06T03:31:43.799Z,99.90
2018-09-06T03:34:12.398Z,99.90
2018-09-06T03:36:40.914Z,99.90
2018-09-06T03:39:09.897Z,99.90
2018-09-06T03:41:38.694Z,99.90
2018-09-06T03:44:07.241Z,99.90
2018-09-06T03:46:35.609Z,99.90
2018-09-06T03:49:04.146Z,99.90
2018-09-06T03:51:32.610Z,99.90
2018-09-06T03:54:01.331Z,99.90
2018-09-06T03:56:30.657Z,99.90
2018-09-06T03:58:59.100Z,99.90
2018-09-06T04:01:27.723Z,99.90
2018-09-06T04:03:56.121Z,99.90
2018-09-06T04:06:24.896Z,99.90
2018-09-06T04:08:53.422Z,99.90
2018-09-06T04:11:22.063Z,99.90
2018-09-06T04:13:50.450Z,99.90
2018-09-06T04:16:18.865Z,99.90
2018-09-06T04:18:47.449Z,99.90
2018-09-06T04:21:15.813Z,99.90
2018-09-06T04:23:44.508Z,99.90
2018-09-06T04:26:13.008Z,99.90
2018-09-06T04:28:41.416Z,99.90
2018-09-06T04:31:10.860Z,99.90
2018-09-06T04:33:39.341Z,99.90
2018-09-06T04:36:07.994Z,99.90
2018-09-06T04:38:36.580Z,99.90
2018-09-06T04:41:05.912Z,99.90
2018-09-06T04:43:34.365Z,99.90
2018-09-06T04:46:03.076Z,99.90
2018-09-06T04:48:32.088Z,99.90
2018-09-06T04:51:00.465Z,99.90
2018-09-06T04:53:28.944Z,99.90
2018-09-06T04:55:57.339Z,99.90
2018-09-06T04:58:26.036Z,99.90
2018-09-06T05:00:54.428Z,99.90
2018-09-06T05:03:22.812Z,99.90
2018-09-06T05:05:51.373Z,99.90
2018-09-06T05:08:19.885Z,99.90
2018-09-06T05:10:48.456Z,99.90
2018-09-06T05:13:17.488Z,99.90
2018-09-06T05:15:45.961Z,99.90
2018-09-06T05:18:14.476Z,99.90
2018-09-06T05:20:43.180Z,99.90
2018-09-06T05:23:11.571Z,99.90
2018-09-06T05:25:40.057Z,99.90
2018-09-06T05:28:08.692Z,99.90
2018-09-06T05:30:37.159Z,99.90
2018-09-06T05:33:07.620Z,99.90
2018-09-06T05:35:36.341Z,99.90
2018-09-06T05:38:04.821Z,99.90
2018-09-06T05:40:33.254Z,99.90
2018-09-06T05:43:01.967Z,99.90
2018-09-06T05:45:30.410Z,99.90
2018-09-06T05:48:01.460Z,99.90
2018-09-06T05:50:31.041Z,99.90
2018-09-06T05:53:00.969Z,99.90
2018-09-06T05:55:29.364Z,99.90
2018-09-06T05:57:57.929Z,99.90
2018-09-06T06:00:31.798Z,99.90
2018-09-06T06:03:02.170Z,99.90
2018-09-06T06:05:30.722Z,99.90
2018-09-06T06:08:10.598Z,99.90
2018-09-06T06:10:39.245Z,99.90
2018-09-06T06:13:07.621Z,99.90
2018-09-06T06:15:36.632Z,99.90
2018-09-06T06:18:05.165Z,99.90
2018-09-06T06:20:33.616Z,99.90
2018-09-06T06:23:02.050Z,99.90
2018-09-06T06:25:30.474Z,99.90
2018-09-06T06:27:59.125Z,99.90
2018-09-06T06:30:27.838Z,99.90
2018-09-06T06:32:56.285Z,99.90
2018-09-06T06:35:25.044Z,99.90
2018-09-06T06:37:53.492Z,99.90
2018-09-06T06:40:21.993Z,99.90
2018-09-06T06:42:50.693Z,99.90
2018-09-06T06:45:19.169Z,99.90
2018-09-06T06:47:47.565Z,99.90
2018-09-06T06:50:16.230Z,99.90
2018-09-06T06:52:44.651Z,99.90
2018-09-06T06:55:13.049Z,99.90
2018-09-06T06:57:41.960Z,99.90
2018-09-06T07:00:10.401Z,99.90
2018-09-06T07:02:38.820Z,99.90
2018-09-06T07:05:07.410Z,99.90
2018-09-06T07:07:37.166Z,99.90
2018-09-06T07:10:06.709Z,99.90
2018-09-06T07:12:35.170Z,99.90
2018-09-06T07:15:03.557Z,99.90
2018-09-06T07:17:32.013Z,99.90
2018-09-06T07:20:00.429Z,99.90
2018-09-06T07:22:29.051Z,99.90
2018-09-06T07:24:57.472Z,99.90
2018-09-06T07:27:25.863Z,99.90
2018-09-06T07:29:54.342Z,99.90
2018-09-06T07:32:22.733Z,99.90
2018-09-06T07:34:51.120Z,99.90
2018-09-06T07:37:19.503Z,99.90
2018-09-06T07:39:48.045Z,99.90
2018-09-06T07:42:16.465Z,99.90
2018-09-06T07:44:44.861Z,99.90
2018-09-06T07:47:13.439Z,99.90
2018-09-06T07:49:41.884Z,99.90
2018-09-06T07:52:10.291Z,99.90
2018-09-06T07:54:38.796Z,99.90
2018-09-06T07:57:07.169Z,99.90
2018-09-06T07:59:35.753Z,99.90
2018-09-06T08:02:04.173Z,99.90
2018-09-06T08:04:32.655Z,99.90
2018-09-06T08:07:01.279Z,99.90
2018-09-06T08:09:29.668Z,99.90
2018-09-06T08:11:58.107Z,99.90
2018-09-06T08:14:27.256Z,99.90
2018-09-06T08:16:55.826Z,99.90
2018-09-06T08:19:24.245Z,99.90
2018-09-06T08:21:52.682Z,99.90
2018-09-06T08:24:21.255Z,99.90
2018-09-06T08:26:49.709Z,99.90
2018-09-06T08:29:18.187Z,99.90
2018-09-06T08:31:46.808Z,99.90
2018-09-06T08:34:15.684Z,99.90
2018-09-06T08:36:44.072Z,99.90
2018-09-06T08:39:12.873Z,99.90
2018-09-06T08:41:41.468Z,99.90
2018-09-06T08:44:09.973Z,99.90
2018-09-06T08:46:38.398Z,99.90
2018-09-06T08:49:06.813Z,99.90
2018-09-06T08:51:35.394Z,99.90
2018-09-06T08:54:03.784Z,99.90
2018-09-06T08:56:32.208Z,99.90
2018-09-06T08:59:00.781Z,99.90
2018-09-06T09:01:44.517Z,99.90
2018-09-06T09:04:13.053Z,99.90
2018-09-06T09:06:41.628Z,99.90
2018-09-06T09:09:13.120Z,99.90
2018-09-06T09:11:41.834Z,99.90
2018-09-06T09:14:10.393Z,99.90
2018-09-06T09:16:39.005Z,99.90
2018-09-06T09:19:07.949Z,99.90
2018-09-06T09:21:36.449Z,99.90
2018-09-06T09:24:05.884Z,99.90
2018-09-06T09:26:34.872Z,99.90
2018-09-06T09:29:03.454Z,99.90
2018-09-06T09:31:31.921Z,99.90
2018-09-06T09:34:00.408Z,99.90
2018-09-06T09:36:29.019Z,99.90
2018-09-06T09:38:57.466Z,99.90
2018-09-06T09:41:25.934Z,99.90
2018-09-06T09:43:54.539Z,99.90
2018-09-06T09:48:50.768Z,99.90
2018-09-06T09:51:19.481Z,99.90
2018-09-06T09:53:47.944Z,99.90
2018-09-06T09:56:16.395Z,99.90
2018-09-06T09:58:44.856Z,99.90
2018-09-06T10:01:13.313Z,99.90
2018-09-06T10:03:47.241Z,99.90
2018-09-06T10:08:24.104Z,99.90
2018-09-06T10:10:52.719Z,99.90
2018-09-06T10:13:21.105Z,99.90
2018-09-06T10:15:49.875Z,99.90
2018-09-06T10:18:18.428Z,99.90
2018-09-06T10:20:47.009Z,99.90
2018-09-06T10:23:15.429Z,99.90
2018-09-06T10:25:43.840Z,99.90
2018-09-06T10:28:12.610Z,99.90
2018-09-06T10:30:41.049Z,99.90
2018-09-06T10:33:09.628Z,99.90
2018-09-06T10:35:38.314Z,99.90
2018-09-06T10:38:06.822Z,99.90
2018-09-06T10:40:38.494Z,99.90
2018-09-06T10:43:07.194Z,99.90
2018-09-06T10:45:35.545Z,99.90
2018-09-06T10:48:04.001Z,99.90
2018-09-06T10:50:32.437Z,99.90
2018-09-06T10:53:01.160Z,99.90
2018-09-06T10:55:29.823Z,99.90
2018-09-06T10:57:58.224Z,99.90
2018-09-06T11:00:28.014Z,99.90
2018-09-06T11:02:56.964Z,99.90
2018-09-06T11:05:25.461Z,99.90
2018-09-06T11:07:54.107Z,99.90
2018-09-06T11:10:22.718Z,99.90
2018-09-06T11:12:51.497Z,99.90
2018-09-06T11:15:19.988Z,99.90
2018-09-06T11:17:48.683Z,99.90
2018-09-06T11:20:17.088Z,99.90
2018-09-06T11:22:45.547Z,99.90
2018-09-06T11:25:14.073Z,99.90
2018-09-06T11:27:42.556Z,99.90
2018-09-06T11:30:11.022Z,99.90
2018-09-06T11:32:40.029Z,99.90
2018-09-06T11:35:08.461Z,99.90
2018-09-06T11:37:37.162Z,99.90
2018-09-06T11:40:05.600Z,99.90
2018-09-06T11:42:34.084Z,99.90
2018-09-06T11:45:02.563Z,99.90
2018-09-06T11:47:31.245Z,99.90
2018-09-06T11:49:59.732Z,99.90
2018-09-06T11:52:28.125Z,99.90
2018-09-06T11:54:56.725Z,99.90
2018-09-06T11:57:25.105Z,99.40
2018-09-06T11:59:53.559Z,99.30
2018-09-06T12:02:22.178Z,99.20
2018-09-06T12:04:50.885Z,99.60
2018-09-06T12:07:19.336Z,99.50
2018-09-06T12:09:47.926Z,99.50
2018-09-06T12:12:16.345Z,99.80
2018-09-06T12:14:45.128Z,98.90
2018-09-06T12:17:13.640Z,98.40
2018-09-06T12:19:42.023Z,97.80
2018-09-06T12:22:10.865Z,97.90
2018-09-06T12:24:39.621Z,98.50
2018-09-06T12:27:08.162Z,98.30
2018-09-06T12:29:36.644Z,97.70
2018-09-06T12:32:05.191Z,97.70
2018-09-06T12:34:33.669Z,97.40
2018-09-06T12:37:02.044Z,96.90
2018-09-06T12:39:30.553Z,96.70
2018-09-06T12:41:59.338Z,96.50
2018-09-06T12:44:27.936Z,96.70
2018-09-06T12:46:56.477Z,96.90
2018-09-06T12:49:25.278Z,96.90
2018-09-06T12:51:53.885Z,96.60
2018-09-06T12:54:22.577Z,96.80
2018-09-06T12:56:51.012Z,96.60
2018-09-06T12:59:19.459Z,96.30
2018-09-06T13:01:48.012Z,95.90
2018-09-06T13:04:16.453Z,95.80
2018-09-06T13:06:44.918Z,95.00
2018-09-06T13:09:13.525Z,95.10
2018-09-06T13:11:42.172Z,95.50
2018-09-06T13:14:11.314Z,95.50
2018-09-06T13:16:39.785Z,95.30
2018-09-06T13:19:08.228Z,95.00
2018-09-06T13:21:36.844Z,95.20
2018-09-06T13:24:05.262Z,95.00
2018-09-06T13:26:33.648Z,94.70
2018-09-06T13:29:02.465Z,94.80
2018-09-06T13:31:31.044Z,94.80
2018-09-06T13:33:59.534Z,95.00
2018-09-06T13:36:46.084Z,94.50
2018-09-06T13:39:14.499Z,94.70
2018-09-06T13:41:42.870Z,94.70
2018-09-06T13:44:12.559Z,93.50
2018-09-06T13:46:41.949Z,93.50
2018-09-06T13:49:10.327Z,93.50
2018-09-06T13:51:38.719Z,93.70
2018-09-06T13:54:07.141Z,94.00
2018-09-06T13:56:35.529Z,93.90
2018-09-06T13:59:04.108Z,94.40
2018-09-06T14:01:32.704Z,94.10
2018-09-06T14:04:01.146Z,93.40
2018-09-06T14:06:29.733Z,93.60
2018-09-06T14:08:58.105Z,93.40
2018-09-06T14:11:26.521Z,93.20
2018-09-06T14:13:55.152Z,93.50
2018-09-06T14:16:23.546Z,93.50
2018-09-06T14:18:52.013Z,93.20
2018-09-06T14:21:20.425Z,93.10
2018-09-06T14:23:49.228Z,93.00
2018-09-06T14:26:17.844Z,93.20
2018-09-06T14:28:46.232Z,93.20
2018-09-06T14:31:14.689Z,92.60
2018-09-06T14:33:43.118Z,92.60
2018-09-06T14:36:11.701Z,92.60
2018-09-06T14:38:40.226Z,92.70
2018-09-06T14:41:08.546Z,93.20
2018-09-06T14:43:37.123Z,93.20
2018-09-06T14:46:05.521Z,93.10
2018-09-06T14:48:33.914Z,92.90
2018-09-06T14:51:02.496Z,92.60
2018-09-06T14:53:30.899Z,92.60
2018-09-06T14:55:59.369Z,92.60
2018-09-06T14:58:27.969Z,92.20
2018-09-06T15:00:56.407Z,92.10
2018-09-06T15:03:24.819Z,92.60
2018-09-06T15:05:53.457Z,93.10
2018-09-06T15:08:21.873Z,92.90
2018-09-06T15:10:50.329Z,92.20
2018-09-06T15:13:18.742Z,92.40
2018-09-06T15:15:47.229Z,92.40
2018-09-06T15:18:15.792Z,92.50
2018-09-06T15:20:44.286Z,92.00
2018-09-06T15:23:13.438Z,91.40
2018-09-06T15:25:42.044Z,91.50
2018-09-06T15:28:11.591Z,91.10
2018-09-06T15:30:40.098Z,91.10
2018-09-06T15:33:08.705Z,91.80
2018-09-06T15:35:37.479Z,91.50
2018-09-06T15:38:06.432Z,90.90
2018-09-06T15:40:35.041Z,90.30
2018-09-06T15:43:03.427Z,90.50
2018-09-06T15:45:31.878Z,90.00
2018-09-06T15:48:00.536Z,90.20
2018-09-06T15:50:28.973Z,89.70
2018-09-06T15:52:57.409Z,90.00
2018-09-06T15:55:25.933Z,90.00
2018-09-06T15:57:54.364Z,90.30
2018-09-06T16:00:22.997Z,90.60
2018-09-06T16:02:51.417Z,90.80
2018-09-06T16:05:21.859Z,90.50
2018-09-06T16:07:51.040Z,90.70
2018-09-06T16:10:19.554Z,90.90
2018-09-06T16:12:48.389Z,90.80
2018-09-06T16:15:17.593Z,90.70
2018-09-06T16:17:46.198Z,90.90
2018-09-06T16:20:14.648Z,90.90
2018-09-06T16:22:43.944Z,91.00
2018-09-06T16:25:12.460Z,90.90
2018-09-06T16:27:40.837Z,91.40
2018-09-06T16:30:09.498Z,91.30
2018-09-06T16:32:38.208Z,91.10
2018-09-06T16:35:06.942Z,91.40
2018-09-06T16:37:35.351Z,91.20
2018-09-06T16:40:04.311Z,91.30
2018-09-06T16:42:32.901Z,91.20
2018-09-06T16:45:01.288Z,91.30
2018-09-06T16:47:29.747Z,91.40
2018-09-06T16:49:58.256Z,91.30
2018-09-06T16:52:27.071Z,91.30
2018-09-06T16:54:55.533Z,91.20
2018-09-06T16:57:24.243Z,91.10
2018-09-06T16:59:52.673Z,91.10
2018-09-06T17:02:21.504Z,91.10
2018-09-06T17:04:50.108Z,91.00
2018-09-06T17:07:18.629Z,91.50
2018-09-06T17:09:47.912Z,91.10
2018-09-06T17:12:16.448Z,91.20
2018-09-06T17:14:45.453Z,91.30
2018-09-06T17:17:13.840Z,91.50
2018-09-06T17:19:42.436Z,93.50
2018-09-06T17:22:11.165Z,96.30
2018-09-06T17:24:40.194Z,98.10
2018-09-06T17:27:15.514Z,99.90
2018-09-06T17:29:43.884Z,99.90
2018-09-06T17:32:12.431Z,99.90
2018-09-06T17:34:41.070Z,99.90
2018-09-06T17:37:09.549Z,99.90
2018-09-06T17:39:38.046Z,99.90
2018-09-06T17:42:07.207Z,99.90
2018-09-06T17:44:35.824Z,99.90
2018-09-06T17:47:04.282Z,99.90
2018-09-06T17:49:33.265Z,99.90
2018-09-06T17:52:01.938Z,99.90
2018-09-06T17:54:30.550Z,99.90
2018-09-06T17:56:59.001Z,99.90
2018-09-06T17:59:27.484Z,99.90
2018-09-06T18:01:56.510Z,99.90
2018-09-06T18:04:24.953Z,99.90
2018-09-06T18:06:53.401Z,99.90
2018-09-06T18:09:22.380Z,99.90
2018-09-06T18:11:51.049Z,99.90
2018-09-06T18:14:19.461Z,99.90
2018-09-06T18:16:47.950Z,99.90
2018-09-06T18:19:16.597Z,99.90
2018-09-06T18:21:45.085Z,99.90
2018-09-06T18:24:13.731Z,99.90
2018-09-06T18:26:43.128Z,99.90
2018-09-06T18:29:11.564Z,99.90
2018-09-06T18:31:40.154Z,99.90
2018-09-06T18:34:08.625Z,99.90
2018-09-06T18:36:37.522Z,99.90
2018-09-06T18:39:06.824Z,99.90
2018-09-06T18:41:35.303Z,99.90
2018-09-06T18:44:03.991Z,99.90
2018-09-06T18:46:32.445Z,99.90
2018-09-06T18:49:00.871Z,99.90
2018-09-06T18:51:30.064Z,99.90
2018-09-06T18:53:58.817Z,99.90
2018-09-06T18:56:27.450Z,99.90
2018-09-06T18:58:56.465Z,99.90
2018-09-06T19:01:25.138Z,99.90
2018-09-06T19:03:53.760Z,99.90
2018-09-06T19:06:22.630Z,99.90
2018-09-06T19:08:51.432Z,99.90
2018-09-06T19:11:20.730Z,99.90
2018-09-06T19:13:50.155Z,99.90
2018-09-06T19:16:19.647Z,99.90
2018-09-06T19:18:48.140Z,99.90
2018-09-06T19:21:16.861Z,99.90
2018-09-06T19:23:45.320Z,99.90
2018-09-06T19:26:13.781Z,99.90
2018-09-06T19:28:42.448Z,99.90
2018-09-06T19:31:11.245Z,99.90
2018-09-06T19:33:39.667Z,99.90
2018-09-06T19:36:12.237Z,99.90
2018-09-06T19:38:40.717Z,99.90
2018-09-06T19:41:09.444Z,99.90
2018-09-06T19:43:37.972Z,99.90
2018-09-06T19:46:06.521Z,99.90
2018-09-06T19:48:35.073Z,99.90
2018-09-06T19:51:03.493Z,99.90
2018-09-06T19:53:32.009Z,99.90
2018-09-06T19:56:00.637Z,99.90
2018-09-06T19:58:29.124Z,99.90
2018-09-06T20:00:57.673Z,99.90
2018-09-06T20:03:26.306Z,99.90
2018-09-06T20:05:54.738Z,99.90
2018-09-06T20:08:23.238Z,99.90
2018-09-06T20:10:52.805Z,99.90
2018-09-06T20:13:21.275Z,99.90
2018-09-06T20:15:50.678Z,99.90
2018-09-06T20:18:19.350Z,99.90
2018-09-06T20:20:47.850Z,99.90
2018-09-06T20:23:16.244Z,99.90
2018-09-06T20:25:44.825Z,99.90
2018-09-06T20:28:13.349Z,99.90
2018-09-06T20:30:41.821Z,99.90
2018-09-06T20:33:10.413Z,99.90
2018-09-06T20:35:38.845Z,99.90
2018-09-06T20:38:07.217Z,99.90
2018-09-06T20:40:35.798Z,99.90
2018-09-06T20:43:04.691Z,99.90
2018-09-06T20:45:33.097Z,99.90
2018-09-06T20:48:01.785Z,99.90
2018-09-06T20:50:30.199Z,99.90
2018-09-06T20:52:58.655Z,99.90
2018-09-06T20:55:27.326Z,99.90
2018-09-06T20:57:55.775Z,99.90
2018-09-06T21:00:24.172Z,99.90
2018-09-06T21:02:52.769Z,99.90
2018-09-06T21:05:21.808Z,99.90
2018-09-06T21:07:50.252Z,99.90
2018-09-06T21:10:18.851Z,99.90
2018-09-06T21:12:47.307Z,99.90
2018-09-06T21:15:15.727Z,99.90
2018-09-06T21:17:44.348Z,99.90
2018-09-06T21:20:12.852Z,99.90
2018-09-06T21:22:41.495Z,99.90
2018-09-06T21:25:09.985Z,99.90
2018-09-06T21:27:38.517Z,99.90
2018-09-06T21:30:07.150Z,99.90
2018-09-06T21:32:35.587Z,99.90
2018-09-06T21:35:04.209Z,99.90
2018-09-06T21:37:33.427Z,99.90
2018-09-06T21:40:01.944Z,99.90
2018-09-06T21:42:30.588Z,99.90
2018-09-06T21:44:58.992Z,99.90
2018-09-06T21:47:27.415Z,99.90
2018-09-06T21:49:56.045Z,99.90
2018-09-06T21:52:24.586Z,99.90
2018-09-06T21:54:53.002Z,99.90
2018-09-06T21:57:21.744Z,99.90
2018-09-06T21:59:50.166Z,99.90
2018-09-06T22:02:24.145Z,99.90
2018-09-06T22:04:52.742Z,99.90
2018-09-06T22:07:21.122Z,99.90
2018-09-06T22:09:49.697Z,99.90
2018-09-06T22:12:18.937Z,99.90
2018-09-06T22:14:49.072Z,99.90
2018-09-06T22:17:17.524Z,99.90
2018-09-06T22:19:46.612Z,99.90
2018-09-06T22:22:15.018Z,99.90
2018-09-06T22:24:43.624Z,99.90
2018-09-06T22:27:12.255Z,99.90
2018-09-06T22:29:40.681Z,99.90
2018-09-06T22:32:09.149Z,99.90
2018-09-06T22:34:37.768Z,99.90
2018-09-06T22:37:06.250Z,99.90
2018-09-06T22:39:34.698Z,99.90
2018-09-06T22:42:03.379Z,99.90
2018-09-06T22:44:31.857Z,99.90
2018-09-06T22:47:00.397Z,99.90
2018-09-06T22:49:29.009Z,99.90
2018-09-06T22:51:57.404Z,99.90
2018-09-06T22:54:25.868Z,99.90
2018-09-06T22:56:54.478Z,99.90
2018-09-06T22:59:23.575Z,99.90
2018-09-06T23:01:51.997Z,99.90
2018-09-06T23:04:20.584Z,99.90
2018-09-06T23:06:49.021Z,99.90
2018-09-06T23:09:17.411Z,99.90
2018-09-06T23:11:46.238Z,99.90
2018-09-06T23:14:14.660Z,99.90
2018-09-06T23:16:43.080Z,99.90
2018-09-06T23:19:11.713Z,99.90
2018-09-06T23:21:40.136Z,99.90
2018-09-06T23:24:08.573Z,99.90
2018-09-06T23:26:37.240Z,99.90
2018-09-06T23:29:05.826Z,99.90
2018-09-06T23:31:34.260Z,99.90
2018-09-06T23:34:02.862Z,99.90
2018-09-06T23:36:31.281Z,99.90
2018-09-06T23:38:59.709Z,99.90
2018-09-06T23:41:28.356Z,99.90
2018-09-06T23:43:56.781Z,99.90
2018-09-06T23:46:25.245Z,99.90
2018-09-06T23:48:54.758Z,99.90
2018-09-06T23:51:23.157Z,99.90
2018-09-06T23:53:51.573Z,99.90
2018-09-06T23:56:20.151Z,99.90
2018-09-06T23:58:48.590Z,99.90
